createdAt,value
2022-11-29T00:01:05.384Z,25.23
2022-11-29T00:03:32.750Z,25.90
2022-11-29T00:06:10.687Z,30.35
2022-11-29T00:08:37.481Z,29.13
2022-11-29T00:11:12.531Z,26.77
2022-11-29T00:13:39.351Z,21.50
2022-11-29T00:16:10.298Z,27.30
2022-11-29T00:18:36.967Z,27.90
2022-11-29T00:21:07.954Z,24.92
2022-11-29T00:23:35.428Z,27.85
2022-11-29T00:26:06.303Z,27.42
2022-11-29T00:28:33.600Z,29.85
2022-11-29T00:31:00.353Z,25.35
2022-11-29T00:33:27.396Z,25.88
2022-11-29T00:35:53.989Z,26.27
2022-11-29T00:38:20.606Z,25.92
2022-11-29T00:40:51.824Z,23.85
2022-11-29T00:43:18.468Z,27.15
2022-11-29T00:45:45.033Z,25.40
2022-11-29T00:48:11.663Z,20.88
2022-11-29T00:50:38.242Z,26.02
2022-11-29T00:53:04.812Z,23.77
2022-11-29T00:55:31.387Z,28.40
2022-11-29T00:57:57.987Z,23.58
2022-11-29T01:00:24.677Z,26.92
2022-11-29T01:02:51.241Z,23.92
2022-11-29T01:05:18.261Z,21.60
2022-11-29T01:07:44.924Z,31.77
2022-11-29T01:10:11.615Z,25.23
2022-11-29T01:12:38.888Z,26.60
2022-11-29T01:15:06.508Z,25.75
2022-11-29T01:17:35.830Z,28.70
2022-11-29T01:20:03.411Z,23.25
2022-11-29T01:22:29.993Z,24.38
2022-11-29T01:24:56.550Z,27.17
2022-11-29T01:27:23.154Z,25.85
2022-11-29T01:29:49.720Z,27.20
2022-11-29T01:32:16.312Z,28.13
2022-11-29T01:34:43.229Z,30.73
2022-11-29T01:37:09.993Z,29.15
2022-11-29T01:39:36.593Z,28.00
2022-11-29T01:42:03.364Z,25.08
2022-11-29T01:44:29.912Z,26.67
2022-11-29T01:46:57.401Z,23.10
2022-11-29T01:49:27.571Z,26.45
2022-11-29T01:52:09.194Z,25.15
2022-11-29T01:54:37.791Z,23.95
2022-11-29T01:57:05.752Z,23.77
2022-11-29T01:59:32.329Z,25.63
2022-11-29T02:02:03.177Z,27.27
2022-11-29T02:04:36.460Z,26.65
2022-11-29T02:07:03.305Z,26.25
2022-11-29T02:09:29.997Z,24.73
2022-11-29T02:12:22.832Z,22.48
2022-11-29T02:14:58.548Z,24.13
2022-11-29T02:17:35.699Z,25.02
2022-11-29T02:20:39.092Z,24.73
2022-11-29T02:23:39.691Z,24.33
2022-11-29T02:26:31.100Z,26.83
2022-11-29T02:29:03.259Z,28.85
2022-11-29T02:31:48.695Z,24.47
2022-11-29T02:34:38.451Z,24.50
2022-11-29T02:37:59.586Z,26.30
2022-11-29T02:41:00.389Z,26.63
2022-11-29T02:43:34.198Z,24.85
2022-11-29T02:46:06.775Z,24.05
2022-11-29T02:49:04.323Z,25.38
2022-11-29T02:51:45.978Z,25.42
2022-11-29T02:54:21.331Z,28.45
2022-11-29T02:56:58.626Z,28.00
2022-11-29T02:59:37.741Z,24.98
2022-11-29T03:02:16.436Z,21.77
2022-11-29T03:04:48.788Z,27.25
2022-11-29T03:07:27.819Z,24.70
2022-11-29T03:10:06.114Z,22.83
2022-11-29T03:12:39.633Z,25.63
2022-11-29T03:15:09.104Z,24.33
2022-11-29T03:18:00.247Z,24.58
2022-11-29T03:21:01.763Z,25.65
2022-11-29T03:23:31.039Z,22.73
2022-11-29T03:25:59.725Z,25.63
2022-11-29T03:28:29.360Z,27.48
2022-11-29T03:31:05.851Z,23.40
2022-11-29T03:33:41.518Z,25.67
2022-11-29T03:36:29.702Z,28.42
2022-11-29T03:38:58.893Z,25.60
2022-11-29T03:41:26.537Z,24.77
2022-11-29T03:44:15.135Z,22.77
2022-11-29T03:46:58.613Z,26.33
2022-11-29T03:49:32.939Z,27.48
2022-11-29T03:51:59.646Z,26.45
2022-11-29T03:54:28.988Z,27.45
2022-11-29T03:56:55.859Z,24.27
2022-11-29T03:59:34.555Z,25.42
2022-11-29T04:02:22.824Z,24.23
2022-11-29T04:05:07.481Z,23.85
2022-11-29T04:07:54.014Z,25.98
2022-11-29T04:10:47.902Z,21.80
2022-11-29T04:13:14.533Z,23.25
2022-11-29T04:15:59.618Z,22.77
2022-11-29T04:18:52.188Z,20.38
2022-11-29T04:21:50.649Z,21.85
2022-11-29T04:24:32.337Z,21.98
2022-11-29T04:27:26.758Z,19.38
2022-11-29T04:30:04.566Z,21.05
2022-11-29T04:32:56.235Z,18.83
2022-11-29T04:36:05.278Z,18.60
2022-11-29T04:38:58.946Z,17.55
2022-11-29T04:41:31.502Z,23.25
2022-11-29T04:43:58.028Z,18.08
2022-11-29T04:46:51.764Z,17.98
2022-11-29T04:49:40.470Z,14.55
2022-11-29T04:52:42.356Z,16.58
2022-11-29T04:55:27.634Z,14.10
2022-11-29T04:58:27.978Z,14.50
2022-11-29T05:01:33.694Z,12.75
2022-11-29T05:04:21.587Z,14.32
2022-11-29T05:07:06.576Z,13.38
2022-11-29T05:09:36.098Z,12.27
2022-11-29T05:12:27.351Z,12.43
2022-11-29T05:14:59.732Z,12.55
2022-11-29T05:17:38.520Z,14.90
2022-11-29T05:20:32.828Z,14.70
2022-11-29T05:23:31.795Z,14.63
2022-11-29T05:26:01.878Z,17.33
2022-11-29T05:28:55.188Z,17.27
2022-11-29T05:31:46.232Z,14.82
2022-11-29T05:34:34.867Z,17.70
2022-11-29T05:37:01.971Z,13.27
2022-11-29T05:39:40.829Z,15.73
2022-11-29T05:42:18.115Z,14.30
2022-11-29T05:45:10.905Z,14.23
2022-11-29T05:47:47.306Z,14.43
2022-11-29T05:50:16.454Z,18.50
2022-11-29T05:53:01.740Z,14.13
2022-11-29T05:55:41.096Z,15.38
2022-11-29T05:58:13.395Z,14.50
2022-11-29T06:01:07.209Z,13.85
2022-11-29T06:03:35.931Z,13.40
2022-11-29T06:06:16.959Z,15.63
2022-11-29T06:08:48.520Z,18.00
2022-11-29T06:11:42.045Z,15.98
2022-11-29T06:17:07.426Z,14.30
2022-11-29T06:19:58.601Z,17.92
2022-11-29T06:22:45.169Z,17.02
2022-11-29T06:25:28.529Z,18.20
2022-11-29T06:30:33.485Z,24.85
2022-11-29T06:33:06.541Z,24.50
2022-11-29T06:38:18.454Z,30.95
2022-11-29T06:40:45.298Z,26.15
2022-11-29T06:43:12.221Z,27.02
2022-11-29T06:45:40.531Z,27.40
2022-11-29T06:48:07.277Z,31.25
2022-11-29T06:50:49.832Z,35.83
2022-11-29T06:53:24.601Z,31.08
2022-11-29T06:55:53.719Z,32.70
2022-11-29T06:58:35.970Z,44.20
2022-11-29T07:01:09.940Z,40.38
2022-11-29T07:03:59.261Z,32.28
2022-11-29T07:06:27.600Z,35.63
2022-11-29T07:08:59.492Z,38.17
2022-11-29T07:11:26.725Z,39.15
2022-11-29T07:13:53.686Z,41.42
2022-11-29T07:17:02.480Z,31.88
2022-11-29T07:19:41.027Z,35.78
2022-11-29T07:22:25.928Z,31.70
2022-11-29T07:25:14.127Z,29.88
2022-11-29T07:28:22.445Z,31.63
2022-11-29T07:31:18.047Z,34.85
2022-11-29T07:34:10.378Z,32.88
2022-11-29T07:37:10.654Z,36.35
2022-11-29T07:40:12.110Z,23.35
2022-11-29T07:42:38.627Z,39.38
2022-11-29T07:45:09.969Z,28.27
2022-11-29T07:47:36.640Z,56.38
2022-11-29T07:50:04.126Z,32.40
2022-11-29T07:52:30.656Z,39.85
2022-11-29T07:54:57.251Z,54.30
2022-11-29T07:57:23.814Z,28.30
2022-11-29T07:59:50.424Z,35.35
2022-11-29T08:02:27.237Z,31.52
2022-11-29T08:04:53.874Z,37.70
2022-11-29T08:07:20.723Z,46.03
2022-11-29T08:09:47.599Z,29.48
2022-11-29T08:12:14.384Z,23.65
2022-11-29T08:14:40.975Z,50.78
2022-11-29T08:17:07.585Z,28.52
2022-11-29T08:19:34.137Z,29.75
2022-11-29T08:22:00.776Z,23.25
2022-11-29T08:24:27.496Z,20.38
2022-11-29T08:26:54.359Z,24.00
2022-11-29T08:29:20.993Z,22.10
2022-11-29T08:31:53.380Z,25.45
2022-11-29T08:34:21.685Z,19.05
2022-11-29T08:36:48.918Z,23.00
2022-11-29T08:39:15.626Z,21.67
2022-11-29T08:41:42.465Z,18.70
2022-11-29T08:44:09.233Z,16.42
2022-11-29T08:46:54.688Z,16.02
2022-11-29T08:49:21.283Z,12.75
2022-11-29T08:51:47.876Z,16.48
2022-11-29T08:54:14.472Z,12.35
2022-11-29T08:59:27.656Z,12.32
2022-11-29T09:01:54.399Z,11.05
2022-11-29T09:04:21.083Z,13.65
2022-11-29T09:06:49.699Z,15.23
2022-11-29T09:09:16.760Z,12.73
2022-11-29T09:11:48.109Z,16.33
2022-11-29T09:14:16.728Z,17.92
2022-11-29T09:16:43.358Z,17.23
2022-11-29T09:19:10.308Z,18.00
2022-11-29T09:21:36.977Z,19.27
2022-11-29T09:24:06.486Z,19.45
2022-11-29T09:26:34.956Z,17.83
2022-11-29T09:29:03.303Z,19.42
2022-11-29T09:31:33.867Z,18.92
2022-11-29T09:34:00.854Z,19.95
2022-11-29T09:36:29.183Z,19.48
2022-11-29T09:38:59.664Z,20.13
2022-11-29T09:41:32.273Z,20.30
2022-11-29T09:44:09.243Z,17.45
2022-11-29T09:46:58.920Z,22.85
2022-11-29T09:49:25.587Z,19.58
2022-11-29T09:52:05.029Z,17.88
2022-11-29T09:55:07.937Z,16.70
2022-11-29T09:57:34.562Z,16.67
2022-11-29T10:00:15.997Z,17.15
2022-11-29T10:02:47.738Z,15.85
2022-11-29T10:05:20.709Z,13.90
2022-11-29T10:08:03.962Z,14.75
2022-11-29T10:10:51.200Z,15.40
2022-11-29T10:13:20.827Z,15.18
2022-11-29T10:15:49.824Z,15.02
2022-11-29T10:18:23.294Z,13.88
2022-11-29T10:20:50.906Z,14.73
2022-11-29T10:23:43.459Z,13.93
2022-11-29T10:28:36.873Z,15.38
2022-11-29T10:31:13.041Z,13.35
2022-11-29T10:33:39.898Z,16.50
2022-11-29T10:36:38.795Z,14.00
2022-11-29T10:39:12.976Z,14.05
2022-11-29T10:41:40.966Z,11.35
2022-11-29T10:44:07.535Z,12.00
2022-11-29T10:46:35.304Z,14.05
2022-11-29T10:49:05.104Z,13.80
2022-11-29T10:51:31.875Z,13.25
2022-11-29T10:54:15.118Z,11.85
2022-11-29T10:56:41.704Z,11.00
2022-11-29T10:59:09.452Z,11.15
2022-11-29T11:01:38.432Z,14.20
2022-11-29T11:04:07.467Z,16.13
2022-11-29T11:06:47.054Z,12.07
2022-11-29T11:09:16.637Z,15.13
2022-11-29T11:11:53.027Z,16.25
2022-11-29T11:14:22.526Z,12.52
2022-11-29T11:16:49.300Z,15.60
2022-11-29T11:19:30.424Z,14.82
2022-11-29T11:21:58.468Z,12.45
2022-11-29T11:24:29.671Z,13.38
2022-11-29T11:26:56.294Z,12.63
2022-11-29T11:29:25.912Z,13.07
2022-11-29T11:31:57.268Z,13.98
2022-11-29T11:34:34.257Z,14.77
2022-11-29T11:37:18.294Z,16.38
2022-11-29T11:39:46.692Z,14.73
2022-11-29T11:42:36.931Z,15.27
2022-11-29T11:45:23.367Z,17.30
2022-11-29T11:47:57.125Z,14.98
2022-11-29T11:50:27.702Z,14.15
2022-11-29T11:52:57.090Z,14.50
2022-11-29T11:55:32.717Z,14.77
2022-11-29T11:58:08.991Z,13.45
2022-11-29T12:01:06.858Z,12.88
2022-11-29T12:03:59.662Z,11.70
2022-11-29T12:06:26.178Z,11.77
2022-11-29T12:09:02.382Z,10.98
2022-11-29T12:11:29.418Z,10.10
2022-11-29T12:13:57.203Z,11.15
2022-11-29T12:16:29.759Z,10.23
2022-11-29T12:19:12.779Z,11.57
2022-11-29T12:21:41.617Z,11.18
2022-11-29T12:24:15.490Z,11.95
2022-11-29T12:26:57.025Z,12.15
2022-11-29T12:29:24.801Z,12.13
2022-11-29T12:32:06.041Z,13.55
2022-11-29T12:34:54.712Z,14.05
2022-11-29T12:37:56.456Z,12.90
2022-11-29T12:40:41.788Z,14.30
2022-11-29T12:43:17.438Z,13.40
2022-11-29T12:46:05.513Z,12.25
2022-11-29T12:48:50.446Z,13.35
2022-11-29T12:51:39.644Z,14.25
2022-11-29T12:54:32.801Z,14.18
2022-11-29T12:57:05.349Z,14.23
2022-11-29T12:59:56.187Z,13.07
2022-11-29T13:02:41.231Z,14.07
2022-11-29T13:05:13.900Z,14.73
2022-11-29T13:07:58.392Z,14.13
2022-11-29T13:10:52.115Z,14.23
2022-11-29T13:13:40.657Z,13.75
2022-11-29T13:16:31.336Z,12.27
2022-11-29T13:18:58.185Z,15.07
2022-11-29T13:21:57.743Z,11.93
2022-11-29T13:24:27.364Z,13.32
2022-11-29T13:26:53.952Z,15.70
2022-11-29T13:29:20.600Z,15.25
2022-11-29T13:31:47.843Z,12.30
2022-11-29T13:34:34.665Z,12.40
2022-11-29T13:37:28.810Z,13.23
2022-11-29T13:40:15.160Z,15.23
2022-11-29T13:42:51.746Z,14.32
2022-11-29T13:45:27.165Z,13.82
2022-11-29T13:47:56.244Z,18.42
2022-11-29T13:50:43.834Z,14.95
2022-11-29T13:53:21.990Z,13.32
2022-11-29T13:56:00.316Z,13.90
2022-11-29T13:58:38.022Z,13.10
2022-11-29T14:01:12.171Z,14.68
2022-11-29T14:03:43.138Z,14.95
2022-11-29T14:06:31.431Z,14.90
2022-11-29T14:09:27.103Z,14.05
2022-11-29T14:11:59.465Z,14.55
2022-11-29T14:14:31.551Z,14.98
2022-11-29T14:17:03.758Z,13.48
2022-11-29T14:19:34.038Z,14.85
2022-11-29T14:22:07.191Z,14.57
2022-11-29T14:24:37.298Z,14.75
2022-11-29T14:27:10.433Z,14.73
2022-11-29T14:32:49.677Z,15.52
2022-11-29T14:35:30.395Z,17.65
2022-11-29T14:38:15.240Z,15.10
2022-11-29T14:40:42.175Z,14.20
2022-11-29T14:43:24.051Z,14.27
2022-11-29T14:46:29.266Z,14.55
2022-11-29T14:48:56.677Z,13.52
2022-11-29T14:51:33.996Z,15.00
2022-11-29T14:54:07.390Z,16.30
2022-11-29T14:56:45.319Z,17.23
2022-11-29T14:59:46.196Z,15.82
2022-11-29T15:02:28.268Z,14.07
2022-11-29T15:05:29.882Z,14.18
2022-11-29T15:08:15.751Z,15.40
2022-11-29T15:10:54.059Z,20.65
2022-11-29T15:13:28.772Z,15.93
2022-11-29T15:16:17.983Z,16.27
2022-11-29T15:18:51.150Z,17.40
2022-11-29T15:21:36.070Z,16.40
2022-11-29T15:24:12.529Z,15.75
2022-11-29T15:26:40.657Z,18.02
2022-11-29T15:29:19.328Z,18.92
2022-11-29T15:31:48.627Z,18.83
2022-11-29T15:34:21.006Z,21.30
2022-11-29T15:36:48.328Z,18.48
2022-11-29T15:39:30.047Z,16.50
2022-11-29T15:42:04.290Z,15.90
2022-11-29T15:44:32.957Z,18.67
2022-11-29T15:47:16.364Z,15.95
2022-11-29T15:49:44.291Z,15.55
2022-11-29T15:52:20.065Z,19.40
2022-11-29T15:54:50.787Z,16.77
2022-11-29T15:57:21.395Z,19.58
2022-11-29T15:59:56.780Z,17.15
2022-11-29T16:02:28.900Z,15.60
2022-11-29T16:05:10.445Z,16.67
2022-11-29T16:07:37.609Z,18.98
2022-11-29T16:10:17.246Z,16.00
2022-11-29T16:13:03.106Z,15.35
2022-11-29T16:15:30.945Z,15.75
2022-11-29T16:18:20.803Z,15.13
2022-11-29T16:21:04.473Z,18.15
2022-11-29T16:23:40.201Z,14.90
2022-11-29T16:26:15.929Z,16.23
2022-11-29T16:28:45.158Z,17.20
2022-11-29T16:31:20.006Z,18.38
2022-11-29T16:33:50.319Z,20.85
2022-11-29T16:36:26.840Z,21.30
2022-11-29T16:38:55.784Z,20.50
2022-11-29T16:41:33.631Z,21.50
2022-11-29T16:44:03.541Z,20.10
2022-11-29T16:46:38.208Z,18.38
2022-11-29T16:49:33.983Z,22.65
2022-11-29T16:52:01.030Z,20.42
2022-11-29T16:54:33.778Z,18.75
2022-11-29T16:57:04.050Z,22.40
2022-11-29T16:59:32.082Z,20.70
2022-11-29T17:01:58.846Z,19.25
2022-11-29T17:04:26.105Z,20.08
2022-11-29T17:06:56.178Z,21.80
2022-11-29T17:09:28.010Z,22.80
2022-11-29T17:11:55.764Z,25.75
2022-11-29T17:14:22.445Z,25.58
2022-11-29T17:16:52.272Z,24.48
2022-11-29T17:19:20.537Z,23.85
2022-11-29T17:21:47.643Z,23.63
2022-11-29T17:24:16.364Z,23.85
2022-11-29T17:26:43.694Z,24.25
2022-11-29T17:29:11.332Z,22.70
2022-11-29T17:31:38.121Z,24.58
2022-11-29T17:34:05.202Z,23.08
2022-11-29T17:36:32.246Z,26.05
2022-11-29T17:38:59.540Z,24.80
2022-11-29T17:41:28.468Z,24.13
2022-11-29T17:43:55.847Z,26.27
2022-11-29T17:46:30.112Z,29.73
2022-11-29T17:48:59.049Z,32.15
2022-11-29T17:54:12.574Z,31.83
2022-11-29T17:56:39.175Z,29.50
2022-11-29T17:59:05.924Z,30.90
2022-11-29T18:01:33.799Z,30.67
2022-11-29T18:04:02.192Z,33.78
2022-11-29T18:06:35.146Z,37.70
2022-11-29T18:09:02.895Z,32.63
2022-11-29T18:11:32.957Z,33.05
2022-11-29T18:14:03.180Z,33.70
2022-11-29T18:16:34.945Z,33.92
2022-11-29T18:19:02.401Z,34.88
2022-11-29T18:21:29.300Z,35.90
2022-11-29T18:23:56.412Z,33.75
2022-11-29T18:26:24.115Z,36.72
2022-11-29T18:28:50.951Z,36.35
2022-11-29T18:31:20.060Z,37.70
2022-11-29T18:33:48.508Z,31.45
2022-11-29T18:36:17.020Z,34.60
2022-11-29T18:38:45.092Z,36.63
2022-11-29T18:41:17.842Z,38.50
2022-11-29T18:43:44.991Z,42.50
2022-11-29T18:46:16.135Z,36.60
2022-11-29T18:48:44.056Z,39.15
2022-11-29T18:51:12.746Z,35.00
2022-11-29T18:53:39.593Z,40.45
2022-11-29T18:56:17.363Z,40.08
2022-11-29T18:58:45.652Z,39.20
2022-11-29T19:01:15.912Z,40.65
2022-11-29T19:03:44.987Z,43.38
2022-11-29T19:06:14.277Z,42.03
2022-11-29T19:08:41.369Z,39.97
2022-11-29T19:11:09.248Z,44.15
2022-11-29T19:13:36.201Z,39.28
2022-11-29T19:16:03.647Z,43.30
2022-11-29T19:18:30.637Z,44.13
2022-11-29T19:21:07.888Z,42.58
2022-11-29T19:23:34.618Z,45.22
2022-11-29T19:26:09.160Z,47.13
2022-11-29T19:28:37.199Z,41.80
2022-11-29T19:31:05.397Z,49.00
2022-11-29T19:33:33.617Z,46.17
2022-11-29T19:36:17.057Z,47.45
2022-11-29T19:38:46.565Z,47.97
2022-11-29T19:43:48.057Z,51.40
2022-11-29T19:46:17.036Z,52.25
2022-11-29T19:48:43.958Z,52.40
2022-11-29T19:51:11.570Z,49.70
2022-11-29T19:53:38.612Z,52.95
2022-11-29T19:56:11.406Z,51.10
2022-11-29T19:58:38.033Z,52.90
2022-11-29T20:01:16.313Z,47.30
2022-11-29T20:03:43.521Z,49.72
2022-11-29T20:06:10.368Z,46.38
2022-11-29T20:08:37.415Z,47.60
2022-11-29T20:11:08.626Z,45.92
2022-11-29T20:13:36.116Z,44.10
2022-11-29T20:16:09.666Z,44.22
2022-11-29T20:18:37.696Z,51.13
2022-11-29T20:21:09.228Z,42.38
2022-11-29T20:23:35.865Z,46.70
2022-11-29T20:26:02.588Z,50.45
2022-11-29T20:28:29.494Z,51.85
2022-11-29T20:30:56.817Z,51.90
2022-11-29T20:33:25.445Z,54.05
2022-11-29T20:36:00.630Z,48.92
2022-11-29T20:38:33.475Z,57.17
2022-11-29T20:41:05.266Z,50.53
2022-11-29T20:43:53.527Z,54.17
2022-11-29T20:46:20.365Z,51.75
2022-11-29T20:48:47.240Z,52.10
2022-11-29T20:51:14.011Z,50.63
2022-11-29T20:53:44.472Z,44.97
2022-11-29T20:56:12.132Z,51.20
2022-11-29T20:58:39.078Z,48.53
2022-11-29T21:01:06.559Z,56.17
2022-11-29T21:03:33.268Z,47.03
2022-11-29T21:06:02.417Z,50.35
2022-11-29T21:08:29.269Z,47.22
2022-11-29T21:11:02.415Z,50.95
2022-11-29T21:15:56.250Z,48.10
2022-11-29T21:18:27.874Z,44.92
2022-11-29T21:21:04.736Z,51.53
2022-11-29T21:23:45.871Z,53.83
2022-11-29T21:26:17.640Z,55.15
2022-11-29T21:28:57.905Z,52.35
2022-11-29T21:31:24.762Z,58.90
2022-11-29T21:33:51.588Z,49.97
2022-11-29T21:36:19.069Z,54.42
2022-11-29T21:38:52.328Z,50.25
2022-11-29T21:41:21.449Z,57.47
2022-11-29T21:44:06.126Z,56.60
2022-11-29T21:46:34.139Z,54.53
2022-11-29T21:49:00.775Z,55.53
2022-11-29T21:51:27.361Z,56.47
2022-11-29T21:53:53.939Z,54.55
2022-11-29T21:56:20.969Z,58.30
2022-11-29T21:58:47.653Z,61.75
2022-11-29T22:01:19.559Z,59.25
2022-11-29T22:03:46.565Z,55.90
2022-11-29T22:06:18.268Z,62.95
2022-11-29T22:08:44.907Z,56.13
2022-11-29T22:11:15.166Z,56.40
2022-11-29T22:14:01.954Z,63.08
2022-11-29T22:16:29.374Z,60.67
2022-11-29T22:18:56.071Z,54.40
2022-11-29T22:21:22.765Z,59.00
2022-11-29T22:23:49.391Z,61.33
2022-11-29T22:26:16.000Z,56.20
2022-11-29T22:28:42.651Z,55.58
2022-11-29T22:31:10.515Z,60.97
2022-11-29T22:33:37.669Z,57.80
2022-11-29T22:36:08.523Z,61.45
2022-11-29T22:38:35.339Z,60.45
2022-11-29T22:41:02.964Z,58.17
2022-11-29T22:43:32.916Z,61.17
2022-11-29T22:46:11.493Z,56.10
2022-11-29T22:48:39.257Z,62.70
2022-11-29T22:51:07.683Z,58.40
2022-11-29T22:53:35.233Z,54.85
2022-11-29T22:56:02.900Z,58.75
2022-11-29T22:58:29.765Z,64.63
2022-11-29T23:01:10.003Z,66.20
2022-11-29T23:03:39.026Z,68.00
2022-11-29T23:06:07.081Z,69.15
2022-11-29T23:08:34.551Z,69.50
2022-11-29T23:11:04.275Z,62.05
2022-11-29T23:13:35.403Z,60.15
2022-11-29T23:16:02.900Z,71.80
2022-11-29T23:18:29.808Z,66.88
2022-11-29T23:21:06.614Z,65.78
2022-11-29T23:23:33.316Z,64.60
2022-11-29T23:26:00.458Z,62.05
2022-11-29T23:28:27.677Z,65.32
2022-11-29T23:30:54.846Z,62.05
2022-11-29T23:33:22.445Z,63.78
2022-11-29T23:35:49.706Z,65.70
2022-11-29T23:38:16.815Z,63.47
2022-11-29T23:40:46.255Z,65.65
2022-11-29T23:43:12.824Z,63.80
2022-11-29T23:45:40.225Z,56.13
2022-11-29T23:48:06.865Z,65.53
2022-11-29T23:50:33.622Z,61.90
2022-11-29T23:53:00.243Z,62.83
2022-11-29T23:55:27.107Z,68.43
2022-11-29T23:57:53.704Z,67.57
